createdAt,value
2023-03-06T00:00:50.016Z,58.55
2023-03-06T00:01:49.964Z,57.26
2023-03-06T00:02:49.962Z,55.20
2023-03-06T00:03:50.016Z,59.33
2023-03-06T00:04:49.951Z,60.70
2023-03-06T00:05:50.036Z,59.23
2023-03-06T00:06:49.964Z,56.43
2023-03-06T00:07:49.934Z,61.73
2023-03-06T00:08:49.933Z,57.21
2023-03-06T00:09:49.914Z,57.43
2023-03-06T00:10:49.934Z,56.48
2023-03-06T00:11:49.933Z,58.17
2023-03-06T00:12:49.904Z,59.96
2023-03-06T00:13:49.908Z,60.03
2023-03-06T00:14:49.905Z,58.21
2023-03-06T00:15:49.958Z,59.87
2023-03-06T00:16:49.902Z,57.43
2023-03-06T00:17:49.878Z,58.65
2023-03-06T00:18:49.869Z,59.21
2023-03-06T00:19:49.867Z,62.10
2023-03-06T00:20:49.862Z,55.72
2023-03-06T00:22:56.863Z,58.37
2023-03-06T00:23:49.838Z,61.41
2023-03-06T00:24:49.835Z,61.54
2023-03-06T00:25:49.835Z,60.21
2023-03-06T00:26:49.847Z,58.49
2023-03-06T00:27:49.830Z,58.67
2023-03-06T00:28:49.805Z,59.32
2023-03-06T00:29:49.807Z,60.39
2023-03-06T00:30:49.796Z,57.06
2023-03-06T00:31:49.921Z,61.51
2023-03-06T00:32:49.832Z,59.51
2023-03-06T00:33:49.800Z,56.83
2023-03-06T00:34:49.772Z,58.23
2023-03-06T00:35:49.837Z,63.04
2023-03-06T00:36:49.772Z,59.92
2023-03-06T00:37:49.750Z,58.50
2023-03-06T00:38:49.772Z,59.95
2023-03-06T00:39:49.747Z,59.28
2023-03-06T00:40:49.740Z,61.90
2023-03-06T00:41:49.734Z,57.67
2023-03-06T00:42:49.759Z,58.66
2023-03-06T00:43:49.712Z,60.94
2023-03-06T00:44:49.743Z,59.12
2023-03-06T00:45:49.710Z,59.19
2023-03-06T00:46:49.700Z,62.07
2023-03-06T00:47:49.703Z,58.77
2023-03-06T00:48:49.700Z,58.96
2023-03-06T00:49:49.677Z,61.47
2023-03-06T00:50:49.703Z,60.21
2023-03-06T00:51:49.717Z,57.10
2023-03-06T00:52:49.674Z,57.17
2023-03-06T00:53:49.659Z,58.43
2023-03-06T00:54:49.659Z,59.45
2023-03-06T00:55:49.645Z,57.04
2023-03-06T00:56:49.631Z,59.01
2023-03-06T00:57:49.668Z,58.52
2023-03-06T00:58:49.629Z,60.91
2023-03-06T00:59:49.634Z,63.60
2023-03-06T01:00:49.647Z,62.97
2023-03-06T01:01:49.659Z,60.81
2023-03-06T01:02:49.597Z,60.61
2023-03-06T01:03:49.641Z,60.52
2023-03-06T01:04:49.602Z,61.09
2023-03-06T01:05:49.601Z,58.32
2023-03-06T01:06:49.584Z,60.41
2023-03-06T01:07:49.575Z,55.97
2023-03-06T01:08:49.581Z,57.97
2023-03-06T01:09:49.598Z,54.95
2023-03-06T01:10:49.564Z,61.46
2023-03-06T01:11:49.557Z,60.20
2023-03-06T01:12:49.616Z,60.70
2023-03-06T01:13:49.526Z,58.33
2023-03-06T01:14:49.521Z,58.33
2023-03-06T01:15:49.515Z,58.37
2023-03-06T01:16:49.512Z,61.62
2023-03-06T01:17:49.507Z,57.84
2023-03-06T01:18:49.528Z,61.02
2023-03-06T01:19:49.488Z,58.24
2023-03-06T01:20:49.478Z,54.17
2023-03-06T01:21:49.527Z,54.39
2023-03-06T01:22:49.474Z,60.37
2023-03-06T01:23:49.469Z,62.61
2023-03-06T01:24:49.459Z,60.82
2023-03-06T01:25:49.458Z,57.68
2023-03-06T01:26:49.446Z,60.71
2023-03-06T01:27:49.447Z,60.43
2023-03-06T01:28:49.439Z,58.90
2023-03-06T01:29:49.451Z,61.12
2023-03-06T01:30:49.437Z,58.35
2023-03-06T01:31:49.420Z,57.17
2023-03-06T01:32:49.411Z,60.57
2023-03-06T01:33:49.392Z,59.79
2023-03-06T01:34:49.441Z,62.43
2023-03-06T01:35:49.448Z,61.70
2023-03-06T01:36:49.397Z,58.35
2023-03-06T01:37:49.401Z,57.09
2023-03-06T01:38:49.369Z,57.66
2023-03-06T01:39:49.376Z,58.47
2023-03-06T01:40:49.364Z,60.04
2023-03-06T01:41:49.347Z,61.43
2023-03-06T01:42:49.354Z,60.93
2023-03-06T01:43:49.385Z,62.79
2023-03-06T01:44:49.333Z,63.13
2023-03-06T01:45:49.414Z,61.30
2023-03-06T01:46:49.317Z,62.23
2023-03-06T01:47:49.323Z,60.87
2023-03-06T01:48:49.335Z,56.47
2023-03-06T01:49:49.302Z,60.38
2023-03-06T01:50:49.290Z,60.50
2023-03-06T01:51:49.326Z,55.97
2023-03-06T01:52:49.268Z,55.46
2023-03-06T01:53:49.266Z,62.12
2023-03-06T01:54:49.280Z,59.07
2023-03-06T01:55:49.248Z,62.19
2023-03-06T01:56:49.245Z,61.58
2023-03-06T01:57:49.237Z,61.58
2023-03-06T01:58:49.250Z,57.79
2023-03-06T01:59:49.227Z,64.18
2023-03-06T02:00:49.330Z,61.71
2023-03-06T02:01:49.213Z,59.39
2023-03-06T02:02:49.226Z,59.73
2023-03-06T02:03:49.211Z,59.92
2023-03-06T02:04:49.195Z,61.95
2023-03-06T02:05:49.198Z,60.17
2023-03-06T02:06:49.192Z,61.72
2023-03-06T02:07:49.194Z,60.06
2023-03-06T02:08:49.188Z,57.91
2023-03-06T02:09:49.160Z,63.40
2023-03-06T02:10:49.174Z,57.67
2023-03-06T02:11:49.242Z,62.71
2023-03-06T02:12:49.154Z,61.64
2023-03-06T02:13:49.148Z,63.47
2023-03-06T02:14:49.145Z,62.82
2023-03-06T02:15:49.141Z,62.55
2023-03-06T02:16:49.192Z,60.12
2023-03-06T02:17:49.140Z,61.82
2023-03-06T02:18:49.107Z,62.97
2023-03-06T02:19:49.098Z,62.84
2023-03-06T02:20:49.107Z,60.45
2023-03-06T02:21:49.088Z,64.52
2023-03-06T02:22:49.077Z,58.69
2023-03-06T02:23:49.089Z,61.52
2023-03-06T02:24:49.063Z,59.51
2023-03-06T02:25:49.060Z,59.05
2023-03-06T02:26:49.068Z,59.07
2023-03-06T02:27:49.055Z,60.96
2023-03-06T02:28:49.058Z,59.07
2023-03-06T02:29:49.028Z,60.71
2023-03-06T02:30:49.100Z,61.04
2023-03-06T02:31:49.014Z,62.46
2023-03-06T02:32:49.009Z,62.90
2023-03-06T02:33:49.030Z,64.55
2023-03-06T02:34:48.997Z,62.92
2023-03-06T02:35:49.008Z,60.36
2023-03-06T02:36:49.021Z,62.92
2023-03-06T02:37:48.990Z,62.46
2023-03-06T02:38:48.997Z,64.74
2023-03-06T02:39:48.975Z,58.80
2023-03-06T02:40:48.969Z,61.10
2023-03-06T02:41:48.965Z,60.12
2023-03-06T02:42:48.977Z,60.82
2023-03-06T02:43:48.956Z,57.92
2023-03-06T02:44:48.936Z,62.69
2023-03-06T02:45:49.019Z,57.12
2023-03-06T02:46:48.922Z,54.00
2023-03-06T02:47:48.920Z,61.67
2023-03-06T02:48:48.909Z,62.81
2023-03-06T02:49:48.915Z,61.00
2023-03-06T02:50:48.905Z,62.16
2023-03-06T02:51:48.886Z,62.58
2023-03-06T02:52:48.876Z,60.55
2023-03-06T02:53:48.886Z,60.18
2023-03-06T02:54:48.876Z,64.09
2023-03-06T02:55:48.867Z,62.14
2023-03-06T02:56:48.856Z,59.86
2023-03-06T02:57:48.865Z,62.91
2023-03-06T02:58:48.838Z,64.51
2023-03-06T02:59:48.836Z,60.50
2023-03-06T03:00:48.817Z,61.06
2023-03-06T03:01:48.918Z,62.89
2023-03-06T03:02:48.833Z,62.20
2023-03-06T03:03:48.810Z,60.63
2023-03-06T03:04:48.841Z,61.33
2023-03-06T03:05:48.779Z,63.98
2023-03-06T03:06:48.813Z,61.78
2023-03-06T03:07:48.772Z,59.71
2023-03-06T03:08:48.792Z,62.59
2023-03-06T03:09:48.786Z,62.63
2023-03-06T03:10:48.755Z,57.48
2023-03-06T03:11:48.737Z,63.14
2023-03-06T03:12:48.738Z,63.92
2023-03-06T03:13:48.727Z,65.26
2023-03-06T03:14:48.735Z,63.96
2023-03-06T03:15:48.791Z,64.98
2023-03-06T03:16:48.715Z,59.90
2023-03-06T03:17:48.704Z,60.07
2023-03-06T03:18:48.705Z,62.93
2023-03-06T03:19:48.689Z,62.98
2023-03-06T03:20:48.715Z,65.12
2023-03-06T03:21:48.680Z,62.33
2023-03-06T03:22:48.680Z,62.70
2023-03-06T03:23:48.682Z,57.44
2023-03-06T03:24:48.686Z,61.71
2023-03-06T03:25:48.646Z,54.48
2023-03-06T03:26:48.675Z,60.45
2023-03-06T03:27:48.650Z,58.68
2023-03-06T03:28:48.642Z,62.88
2023-03-06T03:29:48.634Z,59.75
2023-03-06T03:30:48.675Z,58.81
2023-03-06T03:31:48.643Z,61.17
2023-03-06T03:32:48.638Z,62.75
2023-03-06T03:33:48.616Z,63.41
2023-03-06T03:34:48.610Z,63.66
2023-03-06T03:35:48.657Z,62.72
2023-03-06T03:36:48.606Z,62.10
2023-03-06T03:37:48.607Z,61.87
2023-03-06T03:38:48.582Z,62.54
2023-03-06T03:39:48.568Z,60.88
2023-03-06T03:40:48.560Z,64.28
2023-03-06T03:41:48.564Z,62.38
2023-03-06T03:42:48.557Z,61.98
2023-03-06T03:43:48.552Z,64.07
2023-03-06T03:44:48.554Z,62.50
2023-03-06T03:45:48.517Z,62.72
2023-03-06T03:46:48.584Z,63.59
2023-03-06T03:47:48.556Z,64.24
2023-03-06T03:48:48.511Z,62.84
2023-03-06T03:49:48.496Z,58.27
2023-03-06T03:50:48.491Z,63.08
2023-03-06T03:51:48.482Z,60.24
2023-03-06T03:52:48.486Z,62.07
2023-03-06T03:53:48.484Z,64.36
2023-03-06T03:54:48.481Z,62.20
2023-03-06T03:55:48.470Z,61.74
2023-03-06T03:56:48.454Z,61.08
2023-03-06T03:57:48.459Z,61.79
2023-03-06T03:58:48.464Z,62.45
2023-03-06T03:59:48.425Z,64.21
2023-03-06T04:00:48.428Z,64.06
2023-03-06T04:01:48.472Z,62.45
2023-03-06T04:02:48.425Z,62.17
2023-03-06T04:03:48.423Z,64.07
2023-03-06T04:04:48.401Z,63.16
2023-03-06T04:05:48.428Z,63.77
2023-03-06T04:06:48.372Z,64.14
2023-03-06T04:07:48.375Z,63.79
2023-03-06T04:08:48.370Z,63.05
2023-03-06T04:09:48.357Z,63.24
2023-03-06T04:10:48.367Z,63.72
2023-03-06T04:11:48.346Z,65.12
2023-03-06T04:12:48.349Z,64.64
2023-03-06T04:13:48.328Z,62.64
2023-03-06T04:14:48.316Z,62.89
2023-03-06T04:15:48.330Z,63.65
2023-03-06T04:16:48.312Z,63.27
2023-03-06T04:17:48.307Z,63.09
2023-03-06T04:18:48.302Z,63.80
2023-03-06T04:19:48.287Z,63.06
2023-03-06T04:20:48.300Z,63.21
2023-03-06T04:21:48.277Z,64.14
2023-03-06T04:22:48.274Z,63.14
2023-03-06T04:23:48.278Z,64.24
2023-03-06T04:24:48.257Z,64.35
2023-03-06T04:25:48.248Z,63.57
2023-03-06T04:26:48.250Z,63.51
2023-03-06T04:27:48.238Z,64.39
2023-03-06T04:28:48.247Z,65.18
2023-03-06T04:29:48.223Z,60.55
2023-03-06T04:30:48.244Z,61.69
2023-03-06T04:31:48.246Z,63.64
2023-03-06T04:32:48.205Z,64.36
2023-03-06T04:33:48.236Z,63.54
2023-03-06T04:34:48.198Z,63.38
2023-03-06T04:35:48.232Z,64.68
2023-03-06T04:36:48.183Z,63.00
2023-03-06T04:37:48.184Z,62.74
2023-03-06T04:38:48.211Z,61.97
2023-03-06T04:39:48.176Z,63.01
2023-03-06T04:40:48.156Z,63.76
2023-03-06T04:41:48.155Z,64.88
2023-03-06T04:42:48.140Z,63.89
2023-03-06T04:43:48.161Z,64.27
2023-03-06T04:44:48.129Z,61.50
2023-03-06T04:45:48.165Z,62.26
2023-03-06T04:46:48.123Z,63.57
2023-03-06T04:47:48.117Z,64.96
2023-03-06T04:48:48.113Z,63.48
2023-03-06T04:49:48.117Z,61.57
2023-03-06T04:50:48.087Z,62.46
2023-03-06T04:51:48.097Z,61.81
2023-03-06T04:52:48.075Z,62.91
2023-03-06T04:53:48.075Z,64.80
2023-03-06T04:54:48.114Z,62.78
2023-03-06T04:55:48.061Z,60.78
2023-03-06T04:56:48.050Z,63.00
2023-03-06T04:57:48.062Z,63.28
2023-03-06T04:58:48.041Z,63.58
2023-03-06T04:59:48.058Z,63.75
2023-03-06T05:00:48.037Z,64.68
2023-03-06T05:01:48.046Z,65.80
2023-03-06T05:02:48.030Z,63.52
2023-03-06T05:03:48.006Z,64.19
2023-03-06T05:04:48.000Z,64.33
2023-03-06T05:05:48.016Z,64.23
2023-03-06T05:06:47.982Z,63.13
2023-03-06T05:07:47.981Z,65.09
2023-03-06T05:08:47.984Z,61.77
2023-03-06T05:09:47.971Z,64.38
2023-03-06T05:10:47.963Z,65.24
2023-03-06T05:11:47.975Z,64.91
2023-03-06T05:12:47.945Z,64.93
2023-03-06T05:13:47.961Z,63.19
2023-03-06T05:14:48.186Z,62.39
2023-03-06T05:15:47.923Z,64.96
2023-03-06T05:16:47.960Z,63.84
2023-03-06T05:17:47.949Z,64.38
2023-03-06T05:18:50.465Z,64.85
2023-03-06T05:19:47.910Z,66.08
2023-03-06T05:20:47.902Z,65.75
2023-03-06T05:21:47.883Z,65.78
2023-03-06T05:22:47.909Z,63.87
2023-03-06T05:23:47.869Z,65.84
2023-03-06T05:24:47.877Z,66.91
2023-03-06T05:25:47.856Z,66.31
2023-03-06T05:26:47.855Z,62.82
2023-03-06T05:27:47.845Z,62.49
2023-03-06T05:28:47.868Z,65.71
2023-03-06T05:29:47.870Z,65.62
2023-03-06T05:30:47.831Z,65.89
2023-03-06T05:31:47.871Z,65.43
2023-03-06T05:32:47.924Z,65.38
2023-03-06T05:33:47.853Z,64.93
2023-03-06T05:34:47.830Z,65.08
2023-03-06T05:35:47.874Z,65.90
2023-03-06T05:36:47.827Z,65.77
2023-03-06T05:37:47.796Z,63.90
2023-03-06T05:38:47.779Z,64.41
2023-03-06T05:39:47.769Z,64.66
2023-03-06T05:40:47.784Z,64.05
2023-03-06T05:41:47.767Z,67.52
2023-03-06T05:42:47.777Z,66.50
2023-03-06T05:43:47.767Z,65.90
2023-03-06T05:44:47.761Z,62.86
2023-03-06T05:45:47.784Z,66.12
2023-03-06T05:46:47.760Z,63.62
2023-03-06T05:47:47.756Z,62.92
2023-03-06T05:48:47.739Z,65.22
2023-03-06T05:49:47.716Z,65.49
2023-03-06T05:50:47.738Z,66.98
2023-03-06T05:51:47.741Z,66.83
2023-03-06T05:52:47.707Z,64.82
2023-03-06T05:53:47.704Z,64.27
2023-03-06T05:54:47.695Z,65.24
2023-03-06T05:55:47.679Z,67.23
2023-03-06T05:56:47.687Z,65.58
2023-03-06T05:57:47.689Z,65.05
2023-03-06T05:58:47.683Z,64.96
2023-03-06T05:59:47.664Z,65.69
2023-03-06T06:00:47.658Z,65.23
2023-03-06T06:01:47.669Z,67.07
2023-03-06T06:02:47.640Z,66.27
2023-03-06T06:03:47.665Z,65.23
2023-03-06T06:04:47.621Z,65.27
2023-03-06T06:05:47.621Z,64.83
2023-03-06T06:06:47.634Z,64.34
2023-03-06T06:07:47.603Z,66.49
2023-03-06T06:08:47.596Z,67.81
2023-03-06T06:09:47.588Z,65.37
2023-03-06T06:10:47.591Z,65.08
2023-03-06T06:11:47.565Z,65.54
2023-03-06T06:12:47.564Z,64.72
2023-03-06T06:13:47.573Z,65.12
2023-03-06T06:14:47.550Z,65.58
2023-03-06T06:15:47.567Z,64.76
2023-03-06T06:16:47.562Z,64.75
2023-03-06T06:17:47.533Z,65.89
2023-03-06T06:18:47.545Z,66.76
2023-03-06T06:19:47.524Z,64.64
2023-03-06T06:20:47.507Z,66.08
2023-03-06T06:21:47.499Z,65.14
2023-03-06T06:22:47.548Z,66.42
2023-03-06T06:23:54.519Z,64.84
2023-03-06T06:24:47.499Z,64.72
2023-03-06T06:25:47.489Z,67.35
2023-03-06T06:26:47.475Z,65.75
2023-03-06T06:27:47.480Z,65.29
2023-03-06T06:28:47.485Z,65.76
2023-03-06T06:29:47.463Z,68.09
2023-03-06T06:30:47.475Z,66.43
2023-03-06T06:31:47.446Z,65.04
2023-03-06T06:32:47.466Z,65.95
2023-03-06T06:33:47.439Z,67.81
2023-03-06T06:34:47.461Z,67.19
2023-03-06T06:35:47.438Z,65.39
2023-03-06T06:36:47.426Z,66.72
2023-03-06T06:37:47.410Z,67.63
2023-03-06T06:38:47.407Z,66.20
2023-03-06T06:39:47.396Z,65.62
2023-03-06T06:41:19.017Z,65.98
2023-03-06T06:41:59.754Z,66.05
2023-03-06T06:42:48.398Z,64.64
2023-03-06T06:43:47.370Z,65.54
2023-03-06T06:44:47.374Z,67.72
2023-03-06T06:45:48.955Z,66.75
2023-03-06T06:47:21.331Z,67.48
2023-03-06T06:47:48.364Z,66.60
2023-03-06T06:48:47.355Z,67.39
2023-03-06T06:49:47.391Z,65.54
2023-03-06T06:50:47.330Z,66.04
2023-03-06T06:51:47.329Z,66.98
2023-03-06T06:52:47.317Z,67.21
2023-03-06T06:53:47.314Z,65.95
2023-03-06T06:54:47.334Z,66.54
2023-03-06T06:55:47.295Z,65.75
2023-03-06T06:56:47.299Z,65.33
2023-03-06T06:57:47.292Z,64.15
2023-03-06T06:58:47.283Z,65.13
2023-03-06T06:59:47.280Z,66.62
2023-03-06T07:00:47.269Z,65.45
2023-03-06T07:01:47.301Z,64.61
2023-03-06T07:02:47.271Z,65.38
2023-03-06T07:03:47.266Z,66.29
2023-03-06T07:05:02.623Z,66.40
2023-03-06T07:05:48.239Z,65.16
2023-03-06T07:06:47.228Z,65.63
2023-03-06T07:07:47.243Z,67.11
2023-03-06T07:08:47.217Z,65.44
2023-03-06T07:09:47.213Z,65.89
2023-03-06T07:10:47.209Z,66.26
2023-03-06T07:11:47.206Z,66.47
2023-03-06T07:12:47.219Z,66.03
2023-03-06T07:13:47.209Z,67.42
2023-03-06T07:14:47.184Z,65.95
2023-03-06T07:15:47.188Z,64.39
2023-03-06T07:16:47.167Z,66.16
2023-03-06T07:17:49.564Z,67.12
2023-03-06T07:18:47.171Z,65.76
2023-03-06T07:19:47.152Z,65.90
2023-03-06T07:20:47.175Z,64.44
2023-03-06T07:21:47.156Z,63.87
2023-03-06T07:22:51.233Z,67.66
2023-03-06T07:23:47.139Z,65.14
2023-03-06T07:24:47.137Z,64.95
2023-03-06T07:25:47.113Z,64.64
2023-03-06T07:26:47.111Z,65.53
2023-03-06T07:27:53.360Z,65.33
2023-03-06T07:28:52.654Z,63.93
2023-03-06T07:29:47.100Z,66.76
2023-03-06T07:30:47.085Z,63.84
2023-03-06T07:31:47.071Z,64.28
2023-03-06T07:32:47.075Z,63.82
2023-03-06T07:33:47.064Z,65.51
2023-03-06T07:34:47.073Z,62.53
2023-03-06T07:35:47.052Z,64.34
2023-03-06T07:36:47.067Z,64.50
2023-03-06T07:37:47.053Z,65.41
2023-03-06T07:38:47.034Z,64.71
2023-03-06T07:39:47.061Z,63.65
2023-03-06T07:40:47.030Z,64.85
2023-03-06T07:41:47.039Z,64.49
2023-03-06T07:42:47.017Z,64.84
2023-03-06T07:43:47.001Z,64.96
2023-03-06T07:44:47.029Z,63.45
2023-03-06T07:45:47.019Z,63.72
2023-03-06T07:46:47.068Z,65.49
2023-03-06T07:47:46.984Z,64.97
2023-03-06T07:48:46.970Z,64.40
2023-03-06T07:49:46.966Z,64.39
2023-03-06T07:50:46.968Z,65.06
2023-03-06T07:51:46.967Z,65.61
2023-03-06T07:52:46.976Z,65.35
2023-03-06T07:53:46.942Z,65.11
2023-03-06T07:54:46.935Z,63.94
2023-03-06T07:55:46.932Z,65.25
2023-03-06T07:56:46.922Z,62.89
2023-03-06T07:57:46.938Z,66.44
2023-03-06T07:58:46.925Z,63.88
2023-03-06T07:59:46.905Z,64.63
2023-03-06T08:00:46.903Z,65.75
2023-03-06T08:01:46.890Z,64.00
2023-03-06T08:02:46.924Z,65.72
2023-03-06T08:03:46.976Z,66.80
2023-03-06T08:04:46.888Z,64.33
2023-03-06T08:05:46.884Z,65.48
2023-03-06T08:06:46.878Z,65.85
2023-03-06T08:07:46.853Z,63.61
2023-03-06T08:08:46.862Z,65.42
2023-03-06T08:09:46.876Z,64.68
2023-03-06T08:10:46.838Z,62.89
2023-03-06T08:11:46.826Z,63.48
2023-03-06T08:12:46.822Z,65.04
2023-03-06T08:13:46.825Z,63.52
2023-03-06T08:14:46.825Z,64.23
2023-03-06T08:15:46.797Z,64.58
2023-03-06T08:16:46.802Z,63.77
2023-03-06T08:17:46.805Z,65.74
2023-03-06T08:18:46.807Z,62.08
2023-03-06T08:19:46.807Z,62.26
2023-03-06T08:20:46.774Z,62.49
2023-03-06T08:21:46.763Z,64.48
2023-03-06T08:22:46.751Z,64.38
2023-03-06T08:23:46.760Z,66.43
2023-03-06T08:24:46.744Z,64.60
2023-03-06T08:25:46.739Z,64.73
2023-03-06T08:26:46.752Z,64.81
2023-03-06T08:27:46.732Z,65.51
2023-03-06T08:28:46.774Z,63.41
2023-03-06T08:29:46.729Z,64.47
2023-03-06T08:30:46.710Z,64.78
2023-03-06T08:31:46.733Z,63.26
2023-03-06T08:32:46.705Z,62.89
2023-03-06T08:33:46.692Z,64.07
2023-03-06T08:34:46.717Z,65.14
2023-03-06T08:35:46.698Z,65.57
2023-03-06T08:36:46.678Z,65.11
2023-03-06T08:37:46.668Z,63.72
2023-03-06T08:38:46.696Z,63.12
2023-03-06T08:39:46.660Z,64.48
2023-03-06T08:40:46.687Z,63.62
2023-03-06T08:41:46.656Z,65.16
2023-03-06T08:42:46.653Z,63.69
2023-03-06T08:43:46.648Z,62.28
2023-03-06T08:44:46.628Z,62.52
2023-03-06T08:45:46.636Z,65.10
2023-03-06T08:46:46.633Z,64.88
2023-03-06T08:47:46.616Z,62.63
2023-03-06T08:48:46.621Z,62.01
2023-03-06T08:49:46.625Z,61.85
2023-03-06T08:50:46.600Z,61.33
2023-03-06T08:51:46.584Z,63.93
2023-03-06T08:52:46.578Z,60.73
2023-03-06T08:53:46.566Z,63.78
2023-03-06T08:54:46.574Z,62.93
2023-03-06T08:55:46.569Z,62.97
2023-03-06T08:56:46.546Z,65.19
2023-03-06T08:57:46.544Z,64.95
2023-03-06T08:58:46.555Z,63.80
2023-03-06T08:59:46.583Z,62.50
2023-03-06T09:00:46.663Z,62.72
2023-03-06T09:01:46.551Z,62.89
2023-03-06T09:02:46.528Z,62.52
2023-03-06T09:03:46.507Z,60.50
2023-03-06T09:04:46.522Z,59.96
2023-03-06T09:05:46.493Z,62.94
2023-03-06T09:06:46.512Z,64.43
2023-03-06T09:07:46.496Z,63.41
2023-03-06T09:08:46.498Z,65.15
2023-03-06T09:09:46.519Z,63.86
2023-03-06T09:10:46.555Z,63.66
2023-03-06T09:11:46.477Z,64.35
2023-03-06T09:12:50.894Z,64.33
2023-03-06T09:13:47.451Z,61.70
2023-03-06T09:14:46.433Z,60.71
2023-03-06T09:15:46.432Z,62.40
2023-03-06T09:16:46.467Z,61.86
2023-03-06T09:17:46.457Z,62.62
2023-03-06T09:18:46.445Z,59.46
2023-03-06T09:19:46.412Z,61.07
2023-03-06T09:20:46.402Z,62.61
2023-03-06T09:21:46.395Z,61.93
2023-03-06T09:22:46.398Z,63.61
2023-03-06T09:23:46.391Z,60.20
2023-03-06T09:24:46.406Z,60.49
2023-03-06T09:25:46.386Z,62.70
2023-03-06T09:26:47.644Z,64.94
2023-03-06T09:27:46.367Z,63.60
2023-03-06T09:28:46.361Z,63.77
2023-03-06T09:29:46.344Z,64.23
2023-03-06T09:30:46.410Z,63.10
2023-03-06T09:31:46.338Z,63.32
2023-03-06T09:32:46.325Z,62.53
2023-03-06T09:33:46.346Z,61.24
2023-03-06T09:34:46.340Z,62.98
2023-03-06T09:35:46.333Z,63.96
2023-03-06T09:36:56.735Z,63.13
2023-03-06T09:37:46.299Z,65.20
2023-03-06T09:38:46.294Z,65.18
2023-03-06T09:39:46.280Z,64.98
2023-03-06T09:40:46.287Z,64.03
2023-03-06T09:41:46.295Z,61.18
2023-03-06T09:42:46.273Z,61.13
2023-03-06T09:43:46.264Z,62.11
2023-03-06T09:44:46.254Z,60.56
2023-03-06T09:45:46.288Z,63.23
2023-03-06T09:46:46.248Z,62.46
2023-03-06T09:47:46.251Z,61.35
2023-03-06T09:48:46.228Z,60.78
2023-03-06T09:49:46.229Z,63.04
2023-03-06T09:50:46.226Z,62.48
2023-03-06T09:51:46.215Z,60.03
2023-03-06T09:52:46.236Z,56.97
2023-03-06T09:53:46.202Z,55.99
2023-03-06T09:54:46.205Z,58.17
2023-03-06T09:55:46.192Z,57.73
2023-03-06T09:56:46.199Z,60.29
2023-03-06T09:57:46.189Z,61.63
2023-03-06T09:58:46.167Z,58.79
2023-03-06T09:59:46.174Z,59.47
2023-03-06T10:00:46.175Z,60.36
2023-03-06T10:01:46.150Z,60.73
2023-03-06T10:02:46.288Z,63.80
2023-03-06T10:03:46.141Z,61.83
2023-03-06T10:04:46.210Z,60.00
2023-03-06T10:05:46.132Z,58.87
2023-03-06T10:06:46.148Z,61.77
2023-03-06T10:07:46.130Z,60.86
2023-03-06T10:08:46.109Z,61.18
2023-03-06T10:09:46.118Z,61.13
2023-03-06T10:10:46.132Z,63.49
2023-03-06T10:11:46.098Z,62.95
2023-03-06T10:12:46.111Z,62.93
2023-03-06T10:13:46.090Z,60.87
2023-03-06T10:14:49.004Z,60.00
2023-03-06T10:15:46.122Z,60.49
2023-03-06T10:16:46.085Z,61.57
2023-03-06T10:17:46.086Z,60.15
2023-03-06T10:18:46.078Z,62.42
2023-03-06T10:19:46.058Z,63.91
2023-03-06T10:20:46.079Z,63.08
2023-03-06T10:21:46.056Z,60.34
2023-03-06T10:22:55.389Z,61.88
2023-03-06T10:23:47.054Z,63.20
2023-03-06T10:24:46.031Z,62.21
2023-03-06T10:25:46.028Z,65.03
2023-03-06T10:26:46.122Z,63.76
2023-03-06T10:27:46.020Z,61.38
2023-03-06T10:28:46.027Z,63.55
2023-03-06T10:30:01.196Z,61.42
2023-03-06T10:30:47.036Z,62.98
2023-03-06T10:31:46.006Z,60.56
2023-03-06T10:32:49.048Z,63.26
2023-03-06T10:33:45.982Z,61.05
2023-03-06T10:34:45.977Z,62.96
2023-03-06T10:35:46.046Z,60.72
2023-03-06T10:36:45.964Z,61.38
2023-03-06T10:37:45.978Z,61.93
2023-03-06T10:38:45.990Z,62.06
2023-03-06T10:39:45.957Z,64.89
2023-03-06T10:40:45.943Z,60.72
2023-03-06T10:41:46.271Z,62.69
2023-03-06T10:42:45.929Z,66.08
2023-03-06T10:43:45.921Z,63.54
2023-03-06T10:44:45.953Z,63.22
2023-03-06T10:45:49.258Z,62.96
2023-03-06T10:46:45.946Z,63.44
2023-03-06T10:47:45.897Z,61.54
2023-03-06T10:48:45.901Z,63.52
2023-03-06T10:49:45.897Z,63.21
2023-03-06T10:50:45.881Z,60.86
2023-03-06T10:51:45.887Z,62.41
2023-03-06T10:52:45.861Z,63.24
2023-03-06T10:53:45.864Z,59.91
2023-03-06T10:54:45.857Z,64.32
2023-03-06T10:55:45.862Z,62.94
2023-03-06T10:56:45.855Z,62.45
2023-03-06T10:57:45.850Z,62.83
2023-03-06T10:58:45.842Z,63.82
2023-03-06T10:59:45.822Z,61.70
2023-03-06T11:00:45.822Z,62.89
2023-03-06T11:01:45.896Z,63.35
2023-03-06T11:02:45.816Z,62.13
2023-03-06T11:03:45.795Z,60.84
2023-03-06T11:04:45.873Z,62.67
2023-03-06T11:05:45.780Z,62.65
2023-03-06T11:06:45.808Z,63.47
2023-03-06T11:07:45.785Z,63.35
2023-03-06T11:08:45.765Z,62.53
2023-03-06T11:09:45.761Z,63.66
2023-03-06T11:10:45.755Z,61.48
2023-03-06T11:11:45.759Z,65.11
2023-03-06T11:12:45.741Z,62.37
2023-03-06T11:13:45.755Z,62.99
2023-03-06T11:14:45.732Z,61.75
2023-03-06T11:15:45.759Z,63.43
2023-03-06T11:16:45.719Z,60.87
2023-03-06T11:17:45.712Z,62.19
2023-03-06T11:18:45.732Z,62.89
2023-03-06T11:19:45.705Z,62.35
2023-03-06T11:20:51.842Z,64.13
2023-03-06T11:21:46.692Z,61.66
2023-03-06T11:22:47.532Z,62.31
2023-03-06T11:23:45.693Z,61.77
2023-03-06T11:24:45.679Z,62.51
2023-03-06T11:25:45.660Z,61.11
2023-03-06T11:26:45.652Z,61.00
2023-03-06T11:27:45.662Z,59.63
2023-03-06T11:28:45.663Z,62.50
2023-03-06T11:29:45.638Z,62.60
2023-03-06T11:30:45.673Z,62.20
2023-03-06T11:31:45.734Z,61.16
2023-03-06T11:32:45.614Z,60.12
2023-03-06T11:33:45.618Z,63.97
2023-03-06T11:34:45.625Z,62.74
2023-03-06T11:35:45.641Z,63.02
2023-03-06T11:36:45.614Z,62.79
2023-03-06T11:37:45.594Z,63.60
2023-03-06T11:38:45.597Z,63.15
2023-03-06T11:39:45.570Z,61.83
2023-03-06T11:40:45.581Z,62.72
2023-03-06T11:41:45.585Z,59.38
2023-03-06T11:42:45.558Z,61.41
2023-03-06T11:43:45.549Z,62.81
2023-03-06T11:44:45.536Z,63.44
2023-03-06T11:45:45.546Z,64.25
2023-03-06T11:46:45.594Z,62.62
2023-03-06T11:47:45.539Z,61.25
2023-03-06T11:48:45.515Z,61.10
2023-03-06T11:49:45.512Z,63.13
2023-03-06T11:50:45.528Z,64.17
2023-03-06T11:51:45.498Z,62.92
2023-03-06T11:52:45.507Z,62.05
2023-03-06T11:53:45.509Z,61.48
2023-03-06T11:54:45.482Z,61.93
2023-03-06T11:55:45.482Z,62.17
2023-03-06T11:56:45.479Z,63.01
2023-03-06T11:57:45.479Z,61.72
2023-03-06T11:58:45.460Z,63.51
2023-03-06T11:59:45.457Z,63.26
2023-03-06T12:00:45.491Z,63.11
2023-03-06T12:01:45.465Z,62.47
2023-03-06T12:02:45.491Z,64.24
2023-03-06T12:03:45.437Z,63.66
2023-03-06T12:04:45.427Z,61.93
2023-03-06T12:05:45.475Z,61.99
2023-03-06T12:06:45.422Z,64.63
2023-03-06T12:07:45.414Z,64.85
2023-03-06T12:08:45.418Z,62.06
2023-03-06T12:09:45.431Z,60.81
2023-03-06T12:10:51.306Z,63.95
2023-03-06T12:11:46.414Z,60.96
2023-03-06T12:12:45.380Z,60.94
2023-03-06T12:13:45.379Z,63.05
2023-03-06T12:14:45.367Z,63.83
2023-03-06T12:15:45.358Z,62.39
2023-03-06T12:16:45.408Z,63.93
2023-03-06T12:17:45.363Z,62.04
2023-03-06T12:18:45.366Z,62.89
2023-03-06T12:19:45.329Z,60.46
2023-03-06T12:20:45.341Z,61.73
2023-03-06T12:21:45.336Z,62.57
2023-03-06T12:22:53.376Z,58.89
2023-03-06T12:23:46.315Z,59.45
2023-03-06T12:24:45.304Z,60.53
2023-03-06T12:28:10.927Z,61.07
2023-03-06T12:29:10.944Z,62.20
2023-03-06T12:30:10.918Z,61.56
2023-03-06T12:31:10.958Z,59.25
2023-03-06T12:32:11.050Z,64.07
2023-03-06T12:33:10.896Z,62.21
2023-03-06T12:34:10.894Z,61.54
2023-03-06T12:35:10.887Z,58.74
2023-03-06T12:36:10.887Z,64.02
2023-03-06T12:37:10.907Z,62.46
2023-03-06T12:38:10.868Z,62.51
2023-03-06T12:39:10.863Z,60.98
2023-03-06T12:40:10.867Z,60.86
2023-03-06T12:41:10.848Z,61.06
2023-03-06T12:42:17.866Z,60.77
2023-03-06T12:43:11.837Z,61.15
2023-03-06T12:44:10.840Z,60.71
2023-03-06T12:45:10.840Z,63.23
2023-03-06T12:46:10.864Z,61.23
2023-03-06T12:47:10.823Z,63.23
2023-03-06T12:48:10.812Z,62.86
2023-03-06T12:49:12.354Z,60.89
2023-03-06T12:50:10.809Z,62.47
2023-03-06T12:51:10.789Z,61.61
2023-03-06T12:52:11.055Z,63.04
2023-03-06T12:53:10.807Z,61.98
2023-03-06T12:54:10.786Z,60.01
2023-03-06T12:55:10.813Z,62.30
2023-03-06T12:56:10.768Z,61.71